Time;durP1;ratioP1;P1;durP2;ratioP2;P2;SDS_P1;SDS_P2;PMS_P1;PMS_P2;Temp;Humidity;BMP_temperature;BMP_pressure;BME280_temperature;BME280_humidity;BME280_pressure;Samples;Min_cycle;Max_cycle;Signal;HPM_P1;HPM_P2
2023/03/04 00:02:09;;;;;;;12.45;5.80;;;1.00;66.10;;;;;;4993015;28;20050;-74
2023/03/04 00:04:34;;;;;;;15.15;6.05;;;1.00;66.20;;;;;;5003740;28;20054;-76
2023/03/04 00:07:00;;;;;;;11.88;5.50;;;1.00;66.20;;;;;;4994642;28;20040;-78
2023/03/04 00:09:25;;;;;;;14.00;6.60;;;0.90;66.30;;;;;;4975680;28;20041;-77
2023/03/04 00:11:51;;;;;;;15.30;5.65;;;0.90;66.40;;;;;;4974470;28;20041;-77
2023/03/04 00:14:16;;;;;;;14.73;7.05;;;0.90;66.50;;;;;;4980260;28;20041;-77
2023/03/04 00:16:42;;;;;;;13.00;6.13;;;0.80;66.50;;;;;;4994301;28;20045;-77
2023/03/04 00:19:09;;;;;;;13.65;6.45;;;0.80;66.70;;;;;;4985121;28;20029;-77
2023/03/04 00:21:34;;;;;;;15.00;6.78;;;0.80;66.80;;;;;;4993374;28;20054;-76
2023/03/04 00:24:00;;;;;;;14.07;6.68;;;0.80;66.90;;;;;;4994849;28;20037;-77
2023/03/04 00:26:25;;;;;;;15.13;6.75;;;0.80;67.00;;;;;;4993944;28;20123;-77
2023/03/04 00:28:51;;;;;;;12.80;5.95;;;0.80;67.10;;;;;;4996830;28;20107;-77
2023/03/04 00:31:16;;;;;;;15.60;7.32;;;0.70;67.10;;;;;;4966443;28;20115;-76
2023/03/04 00:33:45;;;;;;;15.20;6.78;;;0.70;67.20;;;;;;4985423;28;20829;-76
2023/03/04 00:36:10;;;;;;;18.60;8.10;;;0.70;67.20;;;;;;4995612;28;20057;-77
2023/03/04 00:38:36;;;;;;;15.73;7.25;;;0.70;67.30;;;;;;4977086;28;20077;-77
2023/03/04 00:41:01;;;;;;;14.95;7.68;;;0.70;68.30;;;;;;4963554;28;20156;-76
2023/03/04 00:43:27;;;;;;;17.88;7.32;;;0.70;67.90;;;;;;4968372;28;20031;-77
2023/03/04 00:45:52;;;;;;;15.63;7.38;;;0.60;67.60;;;;;;4979943;28;20034;-77
2023/03/04 00:48:18;;;;;;;16.77;6.72;;;0.60;67.70;;;;;;4980316;28;20049;-77
2023/03/04 00:50:43;;;;;;;13.68;6.93;;;0.60;67.70;;;;;;4994458;28;20031;-77
2023/03/04 00:53:09;;;;;;;15.32;7.20;;;0.60;67.90;;;;;;4996245;28;20065;-76
2023/03/04 00:55:35;;;;;;;17.58;8.10;;;0.60;68.00;;;;;;4994515;28;20041;-75
2023/03/04 00:58:00;;;;;;;19.35;8.52;;;0.60;68.10;;;;;;4978111;28;20179;-77
2023/03/04 01:00:26;;;;;;;17.25;7.95;;;0.60;68.20;;;;;;4994052;28;20029;-77
2023/03/04 01:02:51;;;;;;;18.67;8.55;;;0.60;68.40;;;;;;4970596;28;20819;-77
2023/03/04 01:05:17;;;;;;;14.27;6.35;;;0.60;68.50;;;;;;4998016;28;20085;-76
2023/03/04 01:07:42;;;;;;;17.38;7.70;;;0.60;68.50;;;;;;4993746;28;23082;-76
2023/03/04 01:10:08;;;;;;;14.20;7.18;;;0.60;68.70;;;;;;4993675;28;20034;-77
2023/03/04 01:12:34;;;;;;;13.43;6.60;;;0.70;68.80;;;;;;4983616;28;20029;-76
2023/03/04 01:14:59;;;;;;;16.45;8.05;;;0.70;68.80;;;;;;4964888;28;20034;-77
2023/03/04 01:17:25;;;;;;;17.80;8.05;;;0.70;68.90;;;;;;4980171;28;20058;-76
2023/03/04 01:19:50;;;;;;;15.38;7.32;;;0.70;69.10;;;;;;4993672;28;20042;-76
2023/03/04 01:22:17;;;;;;;19.60;8.82;;;0.70;69.10;;;;;;4995487;28;20050;-76
2023/03/04 01:24:43;;;;;;;18.35;8.50;;;0.70;69.20;;;;;;4994737;28;20049;-75
2023/03/04 01:27:09;;;;;;;16.02;7.72;;;0.70;69.30;;;;;;4992072;28;20046;-77
2023/03/04 01:29:34;;;;;;;16.73;8.60;;;0.70;69.40;;;;;;4980503;28;20033;-75
2023/03/04 01:32:00;;;;;;;16.95;8.27;;;0.80;69.50;;;;;;4964134;28;20034;-76
2023/03/04 01:34:25;;;;;;;14.75;6.75;;;0.80;69.50;;;;;;4974642;28;20038;-76
2023/03/04 01:36:51;;;;;;;13.10;6.78;;;0.80;69.60;;;;;;4975684;28;20452;-76
2023/03/04 01:39:16;;;;;;;20.60;8.65;;;0.80;69.70;;;;;;4979888;28;20067;-76
2023/03/04 01:41:42;;;;;;;18.33;8.55;;;0.80;69.80;;;;;;4992227;28;20061;-77
2023/03/04 01:44:08;;;;;;;16.88;8.05;;;0.80;69.80;;;;;;4977280;28;20096;-76
2023/03/04 01:46:33;;;;;;;17.08;8.25;;;0.90;70.00;;;;;;4963536;28;20042;-76
2023/03/04 01:48:59;;;;;;;14.23;7.20;;;0.90;70.00;;;;;;4979330;28;20413;-76
2023/03/04 01:51:24;;;;;;;13.82;7.15;;;0.90;70.10;;;;;;4978241;28;20105;-76
2023/03/04 01:53:52;;;;;;;16.50;8.88;;;0.90;70.20;;;;;;4958866;28;20045;-77
2023/03/04 01:56:50;;;;;;;15.93;7.85;;;1.00;70.30;;;;;;4984207;28;20094;-77
2023/03/04 01:59:15;;;;;;;16.45;7.97;;;1.00;71.00;;;;;;4930327;28;20037;-77
2023/03/04 02:01:45;;;;;;;17.85;8.75;;;1.00;70.40;;;;;;4995168;28;20042;-78
2023/03/04 02:04:11;;;;;;;17.20;8.48;;;1.00;70.60;;;;;;4979379;28;20045;-77
2023/03/04 02:06:37;;;;;;;18.65;9.10;;;1.10;70.80;;;;;;4953667;28;20122;-76
2023/03/04 02:09:03;;;;;;;18.83;9.27;;;1.10;70.80;;;;;;4990496;28;20041;-77
2023/03/04 02:11:29;;;;;;;12.63;7.18;;;1.10;70.80;;;;;;4992071;28;20049;-76
2023/03/04 02:13:54;;;;;;;10.88;5.75;;;1.20;71.00;;;;;;4995151;28;20033;-77
2023/03/04 02:16:20;;;;;;;16.98;8.18;;;1.20;71.00;;;;;;4986215;28;20048;-76
2023/03/04 02:18:45;;;;;;;17.08;8.60;;;1.20;71.00;;;;;;4980339;28;20053;-77
2023/03/04 02:21:32;;;;;;;15.93;8.77;;;1.20;71.00;;;;;;4990427;28;20045;-77
2023/03/04 02:24:23;;;;;;;16.83;8.38;;;1.30;71.20;;;;;;4992865;28;20737;-77
2023/03/04 02:26:48;;;;;;;16.67;7.93;;;1.30;71.50;;;;;;4996169;28;20141;-76
2023/03/04 02:29:15;;;;;;;16.67;8.13;;;1.40;71.10;;;;;;4964844;28;20319;-76
2023/03/04 02:31:42;;;;;;;17.80;8.38;;;1.40;71.20;;;;;;4977809;28;20042;-77
2023/03/04 02:34:16;;;;;;;17.92;8.45;;;1.40;71.30;;;;;;4980128;28;20042;-76
2023/03/04 02:36:42;;;;;;;16.05;8.45;;;1.40;71.50;;;;;;4994244;28;20038;-77
2023/03/04 02:39:12;;;;;;;17.30;7.75;;;1.40;71.40;;;;;;4979749;28;20045;-77
2023/03/04 02:41:38;;;;;;;17.77;8.40;;;1.40;72.30;;;;;;4973590;28;20768;-76
2023/03/04 02:44:14;;;;;;;16.23;8.10;;;1.50;71.60;;;;;;4983764;28;20141;-77
2023/03/04 02:46:39;;;;;;;15.43;8.38;;;1.50;71.60;;;;;;4959077;28;20038;-76
2023/03/04 02:49:05;;;;;;;19.42;8.48;;;1.50;71.60;;;;;;4993000;28;20081;-76
2023/03/04 02:51:30;;;;;;;15.88;8.13;;;1.50;71.60;;;;;;4992221;28;20054;-75
2023/03/04 02:53:56;;;;;;;15.02;7.95;;;1.50;71.80;;;;;;4978509;28;20030;-77
2023/03/04 02:56:21;;;;;;;17.20;7.88;;;1.60;71.90;;;;;;4992477;28;20065;-77
2023/03/04 02:58:47;;;;;;;15.98;8.38;;;1.60;71.90;;;;;;4974435;28;20133;-77
2023/03/04 03:01:12;;;;;;;14.93;7.05;;;1.60;71.90;;;;;;4994020;28;20038;-77
2023/03/04 03:03:38;;;;;;;14.30;7.53;;;1.60;72.00;;;;;;4966932;28;20048;-77
2023/03/04 03:06:04;;;;;;;16.02;7.55;;;1.60;72.10;;;;;;4991305;28;20072;-77
2023/03/04 03:08:29;;;;;;;17.88;8.10;;;1.60;72.10;;;;;;4993468;28;20144;-77
2023/03/04 03:10:55;;;;;;;16.80;8.18;;;1.60;72.10;;;;;;4974177;28;20120;-76
2023/03/04 03:13:20;;;;;;;18.45;9.18;;;1.70;72.20;;;;;;4963444;28;20029;-77
2023/03/04 03:15:46;;;;;;;16.67;8.40;;;1.70;72.20;;;;;;4977002;28;20042;-77
2023/03/04 03:18:11;;;;;;;15.40;7.57;;;1.70;72.20;;;;;;4976797;28;20064;-77
2023/03/04 03:20:37;;;;;;;15.68;8.02;;;1.70;72.30;;;;;;4963260;28;20148;-77
2023/03/04 03:23:02;;;;;;;17.77;8.60;;;1.70;72.30;;;;;;4950332;28;20092;-77
2023/03/04 03:25:28;;;;;;;14.52;7.93;;;1.70;72.30;;;;;;4989460;28;20108;-77
2023/03/04 03:27:53;;;;;;;15.95;7.97;;;1.80;72.40;;;;;;4989093;28;20534;-77
2023/03/04 03:30:19;;;;;;;17.05;7.82;;;1.80;72.40;;;;;;4990623;28;20034;-77
2023/03/04 03:32:45;;;;;;;16.00;8.18;;;1.80;72.40;;;;;;4974722;28;20401;-77
2023/03/04 03:35:10;;;;;;;15.45;8.30;;;1.80;72.50;;;;;;4978749;28;20045;-77
2023/03/04 03:37:36;;;;;;;20.35;8.55;;;1.80;72.50;;;;;;4978266;28;20065;-77
2023/03/04 03:40:02;;;;;;;15.52;7.97;;;1.80;72.50;;;;;;4977682;28;20060;-77
2023/03/04 03:42:27;;;;;;;14.50;8.05;;;1.80;72.50;;;;;;4975478;28;20147;-76
2023/03/04 03:44:53;;;;;;;15.00;7.57;;;1.80;72.50;;;;;;4972187;28;20046;-77
2023/03/04 03:47:18;;;;;;;18.88;8.85;;;1.90;72.90;;;;;;4961583;28;20038;-76
2023/03/04 03:49:44;;;;;;;15.70;8.65;;;1.90;72.60;;;;;;4993468;28;20072;-77
2023/03/04 03:52:10;;;;;;;16.88;8.52;;;1.90;72.60;;;;;;4982339;28;20038;-76
2023/03/04 03:54:35;;;;;;;14.55;8.05;;;1.90;72.70;;;;;;4995898;28;20064;-77
2023/03/04 03:57:01;;;;;;;18.50;9.35;;;1.90;72.80;;;;;;4978424;28;20029;-77
2023/03/04 03:59:26;;;;;;;19.90;8.48;;;1.90;72.80;;;;;;4990338;28;20053;-77
2023/03/04 04:01:52;;;;;;;20.40;8.80;;;1.90;72.80;;;;;;4976706;28;20045;-77
2023/03/04 04:04:17;;;;;;;17.45;8.60;;;2.00;72.80;;;;;;4998835;28;20827;-76
2023/03/04 04:06:43;;;;;;;16.20;7.85;;;2.00;72.80;;;;;;4952350;28;20690;-76
2023/03/04 04:09:08;;;;;;;15.73;8.20;;;2.00;72.80;;;;;;4984562;28;20061;-76
2023/03/04 04:11:34;;;;;;;18.95;8.70;;;2.00;72.80;;;;;;4999738;28;20160;-76
2023/03/04 04:13:59;;;;;;;16.30;8.05;;;2.00;72.80;;;;;;4980189;28;20034;-75
2023/03/04 04:16:25;;;;;;;12.85;7.20;;;2.10;72.80;;;;;;4984183;28;20111;-77
2023/03/04 04:18:50;;;;;;;14.25;8.40;;;2.10;72.80;;;;;;4994805;28;20069;-77
2023/03/04 04:21:16;;;;;;;16.85;8.52;;;2.10;72.80;;;;;;4980759;28;20049;-77
2023/03/04 04:23:41;;;;;;;18.10;8.85;;;2.10;72.80;;;;;;5000292;28;20038;-76
2023/03/04 04:26:07;;;;;;;15.55;8.32;;;2.10;72.80;;;;;;4989585;28;20026;-76
2023/03/04 04:28:33;;;;;;;15.80;7.57;;;2.10;72.80;;;;;;4987100;28;20741;-76
2023/03/04 04:30:58;;;;;;;19.17;9.52;;;2.20;72.80;;;;;;4982840;28;20154;-77
2023/03/04 04:33:24;;;;;;;12.05;6.68;;;2.20;72.80;;;;;;5000020;28;20038;-77
2023/03/04 04:35:49;;;;;;;12.13;6.88;;;2.20;72.70;;;;;;4994883;28;20038;-75
2023/03/04 04:38:15;;;;;;;14.30;7.45;;;2.20;72.70;;;;;;4977813;28;20050;-76
2023/03/04 04:40:41;;;;;;;15.45;7.88;;;2.20;72.70;;;;;;4979209;28;20049;-77
2023/03/04 04:43:07;;;;;;;17.27;8.02;;;2.20;72.60;;;;;;4963247;28;20628;-77
2023/03/04 04:45:33;;;;;;;18.58;8.60;;;2.30;72.60;;;;;;4990437;28;20030;-76
2023/03/04 04:47:58;;;;;;;15.43;8.48;;;2.30;72.60;;;;;;4995635;28;20507;-77
2023/03/04 04:50:24;;;;;;;15.95;7.80;;;2.30;72.60;;;;;;4962603;28;20523;-77
2023/03/04 04:52:49;;;;;;;14.32;8.10;;;2.30;72.50;;;;;;4999848;28;20041;-77
2023/03/04 04:55:15;;;;;;;16.85;8.82;;;2.30;72.50;;;;;;4982313;28;20407;-76
2023/03/04 04:57:41;;;;;;;14.00;8.25;;;2.40;72.60;;;;;;4995806;28;20034;-77
2023/03/04 05:00:07;;;;;;;16.10;7.88;;;2.40;72.50;;;;;;4979756;28;20038;-77
2023/03/04 05:02:35;;;;;;;15.60;8.55;;;2.40;72.40;;;;;;4993455;28;20416;-76
2023/03/04 05:05:01;;;;;;;17.00;8.88;;;2.40;72.30;;;;;;4962498;28;20084;-76
2023/03/04 05:07:27;;;;;;;16.65;8.65;;;2.40;72.30;;;;;;4983508;28;20133;-77
2023/03/04 05:09:52;;;;;;;15.93;7.53;;;2.40;72.30;;;;;;4963379;28;20133;-77
2023/03/04 05:12:18;;;;;;;20.73;8.93;;;2.40;72.30;;;;;;4980249;28;20125;-77
2023/03/04 05:14:43;;;;;;;13.40;7.63;;;2.40;72.20;;;;;;4994818;28;20122;-77
2023/03/04 05:17:09;;;;;;;17.98;9.13;;;2.50;72.20;;;;;;4983209;28;20052;-76
2023/03/04 05:19:34;;;;;;;16.30;9.07;;;2.50;72.20;;;;;;4981089;28;20117;-75
2023/03/04 05:22:00;;;;;;;14.75;7.75;;;2.50;72.20;;;;;;4981405;28;20152;-77
2023/03/04 05:24:25;;;;;;;14.65;8.15;;;2.50;72.20;;;;;;4959477;28;20048;-77
2023/03/04 05:26:51;;;;;;;12.85;7.50;;;2.50;72.20;;;;;;4960562;28;20038;-77
2023/03/04 05:29:16;;;;;;;15.70;7.90;;;2.50;72.20;;;;;;4980041;28;20036;-77
2023/03/04 05:31:42;;;;;;;15.30;8.45;;;2.50;72.20;;;;;;4995885;28;20165;-76
2023/03/04 05:34:08;;;;;;;16.67;9.32;;;2.50;72.10;;;;;;4981438;28;20116;-77
2023/03/04 05:36:33;;;;;;;17.55;8.98;;;2.50;72.10;;;;;;4963406;28;20070;-77
2023/03/04 05:38:59;;;;;;;16.13;8.98;;;2.50;72.10;;;;;;4994908;28;20068;-77
2023/03/04 05:41:24;;;;;;;16.50;7.80;;;2.50;72.10;;;;;;4981473;28;20119;-77
2023/03/04 05:43:50;;;;;;;13.68;8.23;;;2.50;72.10;;;;;;4992531;28;20034;-76
2023/03/04 05:46:16;;;;;;;15.50;8.43;;;2.50;72.00;;;;;;4968733;28;20049;-77
2023/03/04 05:48:42;;;;;;;15.10;8.68;;;2.60;72.00;;;;;;4978056;28;20065;-77
2023/03/04 05:51:07;;;;;;;14.07;8.13;;;2.50;72.00;;;;;;4981076;28;20045;-77
2023/03/04 05:53:35;;;;;;;15.90;8.65;;;2.60;72.10;;;;;;4994185;28;20068;-76
2023/03/04 05:56:08;;;;;;;17.55;9.57;;;2.60;72.00;;;;;;4991812;28;20577;-75
2023/03/04 05:58:34;;;;;;;18.05;8.65;;;2.60;72.20;;;;;;4981924;28;20045;-76
2023/03/04 06:01:00;;;;;;;15.70;9.05;;;2.60;72.80;;;;;;4969276;28;20048;-77
2023/03/04 06:03:25;;;;;;;14.60;7.97;;;2.60;72.00;;;;;;4999882;28;20036;-77
2023/03/04 06:05:52;;;;;;;15.00;8.05;;;2.60;72.00;;;;;;4997095;28;20058;-77
2023/03/04 06:08:17;;;;;;;13.95;7.82;;;2.60;72.00;;;;;;4985248;28;20038;-77
2023/03/04 06:10:43;;;;;;;12.68;7.57;;;2.60;72.00;;;;;;4991534;28;20039;-76
2023/03/04 06:13:08;;;;;;;25.35;13.85;;;2.60;72.00;;;;;;4977940;28;20128;-77
2023/03/04 06:15:34;;;;;;;17.15;9.70;;;2.60;72.00;;;;;;4964383;28;20125;-77
2023/03/04 06:17:59;;;;;;;21.27;9.75;;;2.60;72.00;;;;;;4959839;28;20504;-77
2023/03/04 06:20:25;;;;;;;20.60;9.60;;;2.60;72.00;;;;;;4963594;28;20038;-76
2023/03/04 06:22:50;;;;;;;21.60;10.25;;;2.60;71.90;;;;;;4933924;28;20578;-77
2023/03/04 06:25:16;;;;;;;19.90;10.20;;;2.60;72.00;;;;;;4993460;28;20492;-76
2023/03/04 06:27:42;;;;;;;16.42;8.82;;;2.60;72.00;;;;;;4977788;28;20068;-76
2023/03/04 06:30:08;;;;;;;14.75;8.40;;;2.60;72.00;;;;;;4994445;28;20522;-77
2023/03/04 06:32:33;;;;;;;25.73;12.30;;;2.60;72.00;;;;;;4987152;28;20037;-77
2023/03/04 06:35:07;;;;;;;24.40;12.07;;;2.70;72.00;;;;;;5025279;27;1566341;-76
2023/03/04 06:37:32;;;;;;;17.73;9.45;;;2.70;72.00;;;;;;5031407;28;20563;-77
2023/03/04 06:39:58;;;;;;;18.25;10.55;;;2.70;72.00;;;;;;5024626;28;20126;-77
2023/03/04 06:42:23;;;;;;;17.77;9.35;;;2.70;72.00;;;;;;5030917;28;20499;-77
2023/03/04 06:44:49;;;;;;;15.45;8.93;;;2.70;72.00;;;;;;5037191;28;20060;-76
2023/03/04 06:47:15;;;;;;;14.68;8.50;;;2.70;72.00;;;;;;5049676;28;20410;-76
2023/03/04 06:49:41;;;;;;;18.55;9.75;;;2.70;72.00;;;;;;5048069;28;20569;-76
2023/03/04 06:52:10;;;;;;;17.50;8.68;;;2.70;72.00;;;;;;5029377;28;20048;-76
2023/03/04 06:54:35;;;;;;;14.98;8.25;;;2.80;72.10;;;;;;5042895;28;20032;-77
2023/03/04 06:57:01;;;;;;;12.98;8.25;;;2.80;72.10;;;;;;5026514;28;20077;-76
2023/03/04 06:59:26;;;;;;;13.25;8.40;;;2.80;72.90;;;;;;5024547;28;20128;-77
2023/03/04 07:01:52;;;;;;;14.23;8.73;;;2.80;72.10;;;;;;4989022;28;20038;-77
2023/03/04 07:04:17;;;;;;;15.07;8.55;;;2.80;72.00;;;;;;5048658;28;20041;-76
2023/03/04 07:06:43;;;;;;;12.82;7.68;;;2.80;72.80;;;;;;5010191;28;20037;-77
2023/03/04 07:09:08;;;;;;;14.73;8.25;;;2.80;72.00;;;;;;5048507;28;20072;-76
2023/03/04 07:11:34;;;;;;;14.43;8.25;;;2.80;72.00;;;;;;5023256;28;20069;-77
2023/03/04 07:13:59;;;;;;;15.52;8.40;;;2.90;72.10;;;;;;5019283;28;20124;-77
2023/03/04 07:16:25;;;;;;;13.75;7.80;;;2.90;72.00;;;;;;5051391;28;20039;-77
2023/03/04 07:18:50;;;;;;;12.90;7.68;;;2.90;72.00;;;;;;5029866;28;20045;-77
2023/03/04 07:21:16;;;;;;;14.38;7.82;;;2.90;72.00;;;;;;5057128;28;20052;-75
2023/03/04 07:23:42;;;;;;;15.73;8.20;;;2.90;72.00;;;;;;5045369;28;20052;-77
2023/03/04 07:26:07;;;;;;;14.95;8.98;;;3.00;72.00;;;;;;5043961;28;20037;-77
2023/03/04 07:28:33;;;;;;;13.57;8.00;;;3.00;72.00;;;;;;5018770;28;20063;-76
2023/03/04 07:31:28;;;;;;;16.13;8.00;;;3.00;72.00;;;;;;5031194;28;20033;-77
2023/03/04 07:33:55;;;;;;;14.77;9.48;;;3.00;72.20;;;;;;5037375;28;20079;-77
2023/03/04 07:36:21;;;;;;;15.55;7.97;;;3.00;71.90;;;;;;5037942;28;20037;-77
2023/03/04 07:38:47;;;;;;;12.55;7.85;;;3.10;71.90;;;;;;5039116;28;20079;-77
2023/03/04 07:41:13;;;;;;;22.92;11.02;;;3.10;71.90;;;;;;5014402;28;20036;-77
2023/03/04 07:43:38;;;;;;;23.40;10.65;;;3.10;71.90;;;;;;5016041;28;20036;-77
2023/03/04 07:46:04;;;;;;;22.42;10.77;;;3.10;71.90;;;;;;5029619;28;20037;-77
2023/03/04 07:48:30;;;;;;;15.32;8.35;;;3.20;71.90;;;;;;5017175;28;20033;-76
2023/03/04 07:51:22;;;;;;;20.15;10.77;;;3.20;71.80;;;;;;4993624;28;20047;-77
2023/03/04 07:53:49;;;;;;;26.60;13.23;;;3.20;72.00;;;;;;5019634;28;20039;-75
2023/03/04 07:56:19;;;;;;;19.52;11.23;;;3.20;71.70;;;;;;5013850;28;20049;-77
2023/03/04 07:58:45;;;;;;;18.60;10.85;;;3.30;71.70;;;;;;5025918;28;20049;-76
2023/03/04 08:01:21;;;;;;;15.43;9.27;;;3.30;72.00;;;;;;5002985;28;20040;-77
2023/03/04 08:03:47;;;;;;;18.95;10.50;;;3.30;71.70;;;;;;4992621;28;20044;-76
2023/03/04 08:06:14;;;;;;;17.20;10.18;;;3.40;71.60;;;;;;5021769;28;20041;-76
2023/03/04 08:08:39;;;;;;;16.25;9.50;;;3.40;71.60;;;;;;4998906;28;20033;-77
2023/03/04 08:11:10;;;;;;;11.98;7.43;;;3.40;71.60;;;;;;5012728;28;20083;-78
2023/03/04 08:13:36;;;;;;;13.13;8.30;;;3.50;71.60;;;;;;5001063;28;20417;-74
2023/03/04 08:16:01;;;;;;;16.63;8.80;;;3.50;71.50;;;;;;5007127;28;20048;-75
2023/03/04 08:18:27;;;;;;;13.30;8.18;;;3.50;71.40;;;;;;5017885;28;20071;-74
2023/03/04 08:20:52;;;;;;;13.23;8.27;;;3.60;71.40;;;;;;5029392;28;20036;-75
2023/03/04 08:23:18;;;;;;;12.50;7.93;;;3.60;71.30;;;;;;5045960;28;20036;-76
2023/03/04 08:25:44;;;;;;;16.00;9.10;;;3.60;71.30;;;;;;5033721;28;20033;-76
2023/03/04 08:28:11;;;;;;;16.55;9.50;;;3.70;71.30;;;;;;5017893;28;20717;-76
2023/03/04 08:30:37;;;;;;;15.98;9.20;;;3.70;71.30;;;;;;5017074;28;20578;-73
2023/03/04 08:33:02;;;;;;;15.23;8.48;;;3.70;71.20;;;;;;5046623;28;20037;-76
2023/03/04 08:35:28;;;;;;;12.57;7.80;;;3.80;71.20;;;;;;5000792;28;20037;-75
2023/03/04 08:37:54;;;;;;;13.80;7.70;;;3.80;71.10;;;;;;5028280;28;20442;-75
2023/03/04 08:40:19;;;;;;;16.90;8.60;;;3.90;71.20;;;;;;5011321;28;20029;-76
2023/03/04 08:42:45;;;;;;;11.88;7.00;;;3.90;71.10;;;;;;4999816;28;20823;-77
2023/03/04 08:45:10;;;;;;;12.63;6.82;;;3.90;71.00;;;;;;5029024;28;20036;-77
2023/03/04 08:47:36;;;;;;;11.85;7.80;;;3.90;70.90;;;;;;5026432;28;20033;-77
2023/03/04 08:50:02;;;;;;;20.60;8.23;;;4.00;70.90;;;;;;4996023;28;20044;-77
2023/03/04 08:52:29;;;;;;;17.27;8.07;;;4.00;70.80;;;;;;5012959;28;20029;-77
2023/03/04 08:54:54;;;;;;;17.20;8.38;;;4.10;70.80;;;;;;5019967;28;20044;-77
2023/03/04 08:57:20;;;;;;;19.50;7.50;;;4.10;70.80;;;;;;5017830;28;20039;-78
2023/03/04 08:59:45;;;;;;;14.90;7.50;;;4.20;70.80;;;;;;5049912;28;20037;-77
2023/03/04 09:02:11;;;;;;;13.65;7.35;;;4.20;70.70;;;;;;5031910;28;20032;-77
2023/03/04 09:04:36;;;;;;;13.98;6.75;;;4.20;70.70;;;;;;5025870;28;20045;-77
2023/03/04 09:07:02;;;;;;;17.50;7.43;;;4.30;70.60;;;;;;5027984;28;20075;-77
2023/03/04 09:09:27;;;;;;;14.63;7.88;;;4.30;70.60;;;;;;5028249;28;20475;-76
2023/03/04 09:11:53;;;;;;;23.23;8.70;;;4.40;70.50;;;;;;5020777;28;20033;-77
2023/03/04 09:14:18;;;;;;;12.48;6.70;;;4.40;70.50;;;;;;5013311;28;20110;-77
2023/03/04 09:16:44;;;;;;;14.85;6.88;;;4.40;70.40;;;;;;5009780;28;20199;-77
2023/03/04 09:19:10;;;;;;;16.70;6.75;;;4.50;70.40;;;;;;5033162;28;20206;-77
2023/03/04 09:21:35;;;;;;;10.35;5.93;;;4.50;70.40;;;;;;5002751;28;20029;-76
2023/03/04 09:24:01;;;;;;;11.57;5.60;;;4.60;70.30;;;;;;5050347;28;20043;-77
2023/03/04 09:26:28;;;;;;;13.23;5.32;;;4.60;70.20;;;;;;5017307;28;20408;-77
2023/03/04 09:28:57;;;;;;;12.80;5.93;;;4.60;70.10;;;;;;5014576;28;20044;-77
2023/03/04 09:31:23;;;;;;;12.05;5.32;;;4.60;70.00;;;;;;5036987;28;20037;-77
2023/03/04 09:33:49;;;;;;;22.52;6.28;;;4.70;70.00;;;;;;5032660;28;21504;-76
2023/03/04 09:36:15;;;;;;;19.42;6.40;;;4.70;70.00;;;;;;5028538;28;20044;-77
2023/03/04 09:38:41;;;;;;;13.05;5.68;;;4.70;69.80;;;;;;5002043;28;20036;-77
2023/03/04 09:41:24;;;;;;;19.40;6.15;;;4.80;69.90;;;;;;4987204;28;20045;-77
2023/03/04 09:43:49;;;;;;;27.60;5.95;;;4.80;69.90;;;;;;5013027;28;20048;-76
2023/03/04 09:46:24;;;;;;;16.25;6.10;;;4.90;69.80;;;;;;5016050;28;20095;-77
2023/03/04 09:48:51;;;;;;;21.27;5.78;;;4.90;69.70;;;;;;5003603;28;20575;-77
2023/03/04 09:51:43;;;;;;;18.02;5.80;;;5.00;69.70;;;;;;5004509;28;20037;-77
2023/03/04 09:54:10;;;;;;;11.27;5.45;;;5.00;69.70;;;;;;5015484;28;20059;-76
2023/03/04 09:56:37;;;;;;;15.18;6.20;;;5.10;69.60;;;;;;5023773;28;20041;-77
2023/03/04 09:59:12;;;;;;;16.30;5.43;;;5.10;69.50;;;;;;5037125;28;20043;-77
2023/03/04 10:01:46;;;;;;;15.63;5.43;;;5.20;69.50;;;;;;5050145;28;20816;-77
2023/03/04 10:04:49;;;;;;;12.45;5.65;;;5.20;69.50;;;;;;5014563;28;20067;-77
2023/03/04 10:07:24;;;;;;;14.07;5.10;;;5.30;69.40;;;;;;5028299;28;20076;-76
2023/03/04 10:09:56;;;;;;;19.25;5.93;;;5.30;69.30;;;;;;5007768;28;20032;-77
2023/03/04 10:12:23;;;;;;;;;;;5.30;69.20;;;;;;5024433;28;20044;-77
2023/03/04 10:14:51;;;;;;;15.25;5.80;;;5.40;69.10;;;;;;5035312;28;19999;-76
2023/03/04 10:17:38;;;;;;;12.15;5.38;;;5.40;68.90;;;;;;4997480;28;20036;-77
2023/03/04 10:20:09;;;;;;;14.35;5.63;;;5.50;68.90;;;;;;5026649;28;20375;-77
2023/03/04 10:22:38;;;;;;;16.95;6.05;;;5.50;68.80;;;;;;5027043;28;20033;-76
2023/03/04 10:25:17;;;;;;;11.85;5.35;;;5.50;68.70;;;;;;5030273;28;20044;-77
2023/03/04 10:28:01;;;;;;;12.77;5.55;;;5.50;68.60;;;;;;5012846;28;20045;-77
2023/03/04 10:30:45;;;;;;;16.73;5.18;;;5.60;68.70;;;;;;4977683;28;20045;-76
2023/03/04 10:33:24;;;;;;;13.57;5.40;;;5.60;68.50;;;;;;5034195;28;22150;-77
2023/03/04 10:36:25;;;;;;;10.88;4.45;;;5.70;68.50;;;;;;5012545;28;20040;-76
2023/03/04 10:38:55;;;;;;;12.20;4.93;;;5.70;69.10;;;;;;5026075;28;21321;-76
2023/03/04 10:41:23;;;;;;;9.95;5.60;;;5.80;68.30;;;;;;5019377;28;20029;-77
2023/03/04 10:43:50;;;;;;;11.05;5.18;;;5.80;68.20;;;;;;4984571;28;20061;-76
2023/03/04 10:46:16;;;;;;;14.25;4.85;;;5.80;68.10;;;;;;5026256;28;20048;-76
2023/03/04 10:48:43;;;;;;;12.27;5.03;;;5.90;68.00;;;;;;5000696;28;20034;-77
2023/03/04 10:51:19;;;;;;;10.48;3.83;;;5.90;67.80;;;;;;4997367;28;20037;-77
2023/03/04 10:53:45;;;;;;;12.60;3.92;;;5.90;67.70;;;;;;5010711;28;20110;-77
2023/03/04 10:56:30;;;;;;;38.03;6.10;;;6.00;67.70;;;;;;5010665;28;20139;-77
2023/03/04 10:59:22;;;;;;;19.27;5.95;;;6.00;67.80;;;;;;5027579;28;21509;-78
2023/03/04 11:01:50;;;;;;;17.05;5.22;;;6.00;67.80;;;;;;5028690;28;20116;-77
2023/03/04 11:04:18;;;;;;;19.13;6.97;;;6.10;67.70;;;;;;5025006;28;20033;-77
2023/03/04 11:06:44;;;;;;;22.83;6.60;;;6.10;67.70;;;;;;5007469;28;20033;-77
2023/03/04 11:09:21;;;;;;;10.43;5.68;;;6.10;67.60;;;;;;4988320;28;20047;-77
2023/03/04 11:11:47;;;;;;;21.75;5.45;;;6.20;67.40;;;;;;4989528;28;20033;-77
2023/03/04 11:14:40;;;;;;;18.92;5.18;;;6.20;67.40;;;;;;5015261;28;20040;-77
2023/03/04 11:17:19;;;;;;;16.60;4.78;;;6.20;67.40;;;;;;5024315;28;20821;-77
2023/03/04 11:20:02;;;;;;;13.50;4.70;;;6.20;67.10;;;;;;5029197;28;20036;-77
2023/03/04 11:22:27;;;;;;;32.60;10.60;;;6.20;67.10;;;;;;5037483;28;20033;-77
2023/03/04 11:25:48;;;;;;;15.55;6.25;;;6.30;67.10;;;;;;5020988;28;20071;-77
2023/03/04 11:28:19;;;;;;;10.93;5.20;;;6.30;67.00;;;;;;5028370;28;20041;-77
2023/03/04 11:30:49;;;;;;;16.63;5.53;;;6.30;66.90;;;;;;5013381;28;20048;-77
2023/03/04 11:33:35;;;;;;;12.10;4.78;;;6.30;66.90;;;;;;5009320;28;20534;-77
2023/03/04 11:36:39;;;;;;;11.05;4.88;;;6.40;66.70;;;;;;5027335;28;20094;-76
2023/03/04 11:39:26;;;;;;;13.98;4.47;;;6.40;66.70;;;;;;5015541;28;20700;-77
2023/03/04 11:42:20;;;;;;;15.43;4.68;;;6.40;66.70;;;;;;5023866;28;20028;-77
2023/03/04 11:44:45;;;;;;;11.77;5.15;;;6.50;66.70;;;;;;5005518;28;20057;-77
2023/03/04 11:47:30;;;;;;;15.63;6.22;;;6.50;66.60;;;;;;5012121;28;20591;-77
2023/03/04 11:50:05;;;;;;;12.75;4.45;;;6.50;66.70;;;;;;5015945;28;20049;-77
2023/03/04 11:52:53;;;;;;;104.97;33.15;;;6.50;66.50;;;;;;5029339;28;20029;-77
2023/03/04 11:55:37;;;;;;;24.55;9.68;;;6.60;66.50;;;;;;5017865;28;20119;-77
2023/03/04 11:58:40;;;;;;;13.55;4.68;;;6.60;66.50;;;;;;5033218;28;20040;-77
2023/03/04 12:01:11;;;;;;;14.75;5.85;;;6.70;66.40;;;;;;5017514;28;20033;-77
2023/03/04 12:03:43;;;;;;;10.25;5.22;;;6.70;66.40;;;;;;5004325;28;20069;-77
2023/03/04 12:06:24;;;;;;;9.35;5.45;;;6.70;66.30;;;;;;5023870;28;20068;-77
2023/03/04 12:08:59;;;;;;;10.83;5.00;;;6.80;66.20;;;;;;4989570;28;20041;-77
2023/03/04 12:11:42;;;;;;;9.73;4.28;;;6.80;66.20;;;;;;5021129;28;20083;-76
2023/03/04 12:14:21;;;;;;;8.20;5.30;;;6.80;66.00;;;;;;4985673;28;20045;-76
2023/03/04 12:16:52;;;;;;;7.55;3.42;;;6.80;66.00;;;;;;5044558;28;20452;-77
2023/03/04 12:19:30;;;;;;;8.88;4.60;;;6.90;66.00;;;;;;5045234;28;20072;-77
2023/03/04 12:22:14;;;;;;;12.10;4.75;;;6.90;66.00;;;;;;5022879;28;20132;-76
2023/03/04 12:24:56;;;;;;;23.48;6.40;;;6.90;65.90;;;;;;5036517;28;20122;-77
2023/03/04 12:27:36;;;;;;;13.40;5.18;;;6.90;65.80;;;;;;5025408;28;21742;-77
2023/03/04 12:30:25;;;;;;;10.90;3.97;;;6.90;65.90;;;;;;5024979;28;20072;-75
2023/03/04 12:33:12;;;;;;;11.25;3.88;;;7.00;65.90;;;;;;4996671;28;20041;-76
2023/03/04 12:35:54;;;;;;;10.27;3.97;;;7.00;65.60;;;;;;5014146;28;20051;-76
2023/03/04 12:38:19;;;;;;;;;;;7.10;65.70;;;;;;5022909;28;20083;-77
2023/03/04 12:40:58;;;;;;;4.38;3.13;;;7.10;65.70;;;;;;5026864;28;19936;-76
2023/03/04 12:43:40;;;;;;;6.45;2.90;;;7.10;65.60;;;;;;5016107;28;20037;-76
2023/03/04 12:46:29;;;;;;;4.40;2.67;;;7.10;65.40;;;;;;5018627;28;20029;-73
2023/03/04 12:49:01;;;;;;;11.50;4.80;;;7.10;65.40;;;;;;5038817;28;20145;-77
2023/03/04 12:51:34;;;;;;;12.55;3.30;;;7.10;65.40;;;;;;5042314;28;20040;-77
2023/03/04 12:54:24;;;;;;;11.65;3.53;;;7.20;65.40;;;;;;5008733;28;20532;-77
2023/03/04 12:56:56;;;;;;;9.10;3.83;;;7.20;65.20;;;;;;5028361;28;20430;-77
2023/03/04 12:59:22;;;;;;;;;;;7.20;65.30;;;;;;5017663;28;20032;-76